Time;durP1;ratioP1;P1;durP2;ratioP2;P2;SDS_P1;SDS_P2;PMS_P1;PMS_P2;Temp;Humidity;BMP_temperature;BMP_pressure;BME280_temperature;BME280_humidity;BME280_pressure;Samples;Min_cycle;Max_cycle;Signal;HPM_P1;HPM_P2
2023/07/06 00:01:04;;;;;;;7.22;3.90;;;13.50;99.90;;;;;;4976214;28;20055;-80
2023/07/06 00:03:33;;;;;;;5.47;2.90;;;13.60;99.90;;;;;;4969830;28;20552;-80
2023/07/06 00:06:00;;;;;;;4.88;3.10;;;13.60;99.90;;;;;;4981957;28;20031;-80
2023/07/06 00:08:27;;;;;;;5.22;2.85;;;13.50;99.90;;;;;;4984836;28;20064;-81
2023/07/06 00:10:53;;;;;;;4.15;2.90;;;13.50;99.90;;;;;;4990491;28;20030;-78
2023/07/06 00:13:23;;;;;;;5.25;3.30;;;13.60;99.90;;;;;;4997701;28;20027;-81
2023/07/06 00:15:49;;;;;;;4.07;2.78;;;13.60;99.90;;;;;;4985128;28;20015;-80
2023/07/06 00:18:17;;;;;;;5.30;3.00;;;13.50;99.90;;;;;;4974804;28;20086;-80
2023/07/06 00:20:43;;;;;;;3.63;2.80;;;13.40;99.90;;;;;;4960127;28;20066;-81
2023/07/06 00:23:10;;;;;;;6.07;3.63;;;13.30;99.90;;;;;;4976505;28;20033;-80
2023/07/06 00:25:40;;;;;;;4.50;3.58;;;13.30;99.90;;;;;;4961236;28;20480;-79
2023/07/06 00:28:07;;;;;;;4.80;3.42;;;13.30;99.90;;;;;;4976874;28;20024;-80
2023/07/06 00:33:18;;;;;;;6.93;3.53;;;13.10;99.90;;;;;;4972038;28;20050;-80
2023/07/06 00:35:44;;;;;;;7.00;3.55;;;13.10;99.90;;;;;;4976023;28;20488;-81
2023/07/06 00:38:14;;;;;;;5.93;3.97;;;13.00;99.90;;;;;;4994963;28;20043;-80
2023/07/06 00:41:03;;;;;;;5.57;3.42;;;12.90;99.90;;;;;;4997104;28;20058;-80
2023/07/06 00:43:49;;;;;;;4.45;2.53;;;13.00;99.90;;;;;;4994764;28;20031;-80
2023/07/06 00:47:13;;;;;;;6.10;3.55;;;13.10;99.90;;;;;;4982010;28;20071;-81
2023/07/06 00:49:40;;;;;;;3.40;3.05;;;13.20;99.90;;;;;;4979748;28;20035;-81
2023/07/06 00:52:10;;;;;;;6.32;3.33;;;13.10;99.90;;;;;;4994773;28;20015;-80
2023/07/06 00:55:03;;;;;;;5.70;2.95;;;13.10;99.90;;;;;;4999549;28;20038;-80
2023/07/06 00:57:30;;;;;;;6.72;3.28;;;13.30;99.90;;;;;;4991267;28;20043;-80
2023/07/06 01:02:41;;;;;;;7.10;3.30;;;13.40;99.90;;;;;;5124643;22;20041;-82
2023/07/06 01:05:11;;;;;;;4.85;3.65;;;13.40;99.90;;;;;;5020005;28;20439;-79
2023/07/06 01:07:54;;;;;;;5.20;3.15;;;13.50;99.90;;;;;;4994321;28;20037;-81
2023/07/06 01:10:20;;;;;;;6.10;3.25;;;13.30;99.90;;;;;;5005134;28;20018;-80
2023/07/06 01:12:46;;;;;;;5.32;3.38;;;13.20;99.90;;;;;;5020642;28;20580;-81
2023/07/06 01:15:16;;;;;;;6.32;3.95;;;13.10;99.90;;;;;;5020860;28;20445;-81
2023/07/06 01:17:55;;;;;;;6.75;3.00;;;13.20;99.90;;;;;;5022697;28;20121;-81
2023/07/06 01:20:34;;;;;;;7.78;3.20;;;13.20;99.90;;;;;;5003906;28;20048;-81
2023/07/06 01:23:03;;;;;;;5.32;4.28;;;13.30;99.90;;;;;;5002177;28;20022;-81
2023/07/06 01:26:10;;;;;;;4.57;3.08;;;13.50;99.90;;;;;;5019023;28;20093;-82
2023/07/06 01:28:47;;;;;;;5.43;3.92;;;13.50;99.90;;;;;;5002277;28;20081;-81
2023/07/06 01:31:27;;;;;;;5.25;3.20;;;14.40;99.90;;;;;;5023062;28;20495;-82
2023/07/06 01:34:07;;;;;;;;;;;13.80;99.90;;;;;;5015128;28;20049;-82
2023/07/06 01:37:05;;;;;;;4.72;2.92;;;13.80;99.90;;;;;;5020610;28;20137;-82
2023/07/06 01:39:30;;;;;;;4.45;3.00;;;13.70;99.90;;;;;;5033989;28;20080;-80
2023/07/06 01:42:32;;;;;;;4.22;2.95;;;13.70;99.90;;;;;;5032925;28;20089;-82
2023/07/06 01:45:16;;;;;;;4.40;3.20;;;13.70;99.90;;;;;;5024821;28;20038;-81
2023/07/06 01:47:45;;;;;;;7.25;3.53;;;13.80;99.90;;;;;;5015191;28;20553;-81
2023/07/06 01:50:13;;;;;;;5.13;2.70;;;13.70;99.90;;;;;;5014477;28;20518;-81
2023/07/06 01:52:45;;;;;;;8.88;3.50;;;13.60;99.90;;;;;;5029841;28;20030;-81
2023/07/06 01:55:23;;;;;;;4.53;3.55;;;13.70;99.90;;;;;;5032514;28;20046;-80
2023/07/06 01:58:18;;;;;;;6.28;3.10;;;13.60;99.90;;;;;;5035869;28;20030;-81
2023/07/06 02:00:49;;;;;;;9.45;3.67;;;13.60;99.90;;;;;;5032218;28;20029;-81
2023/07/06 02:03:16;;;;;;;6.38;3.10;;;13.50;99.90;;;;;;5006611;28;20053;-81
2023/07/06 02:05:43;;;;;;;5.43;3.30;;;13.50;99.90;;;;;;5028859;28;20060;-79
2023/07/06 02:08:10;;;;;;;6.05;3.47;;;13.50;99.90;;;;;;5008856;28;20080;-81
2023/07/06 02:10:36;;;;;;;4.78;3.40;;;13.50;99.90;;;;;;5019190;28;20494;-82
2023/07/06 02:13:03;;;;;;;5.82;3.47;;;13.50;99.90;;;;;;5006955;28;20079;-81
2023/07/06 02:15:30;;;;;;;5.50;3.22;;;13.50;99.90;;;;;;5023181;28;20024;-81
2023/07/06 02:17:56;;;;;;;7.13;3.58;;;13.40;99.90;;;;;;5009390;28;20140;-80
2023/07/06 02:20:23;;;;;;;5.32;3.00;;;13.50;99.90;;;;;;5033002;28;20045;-81
2023/07/06 02:22:49;;;;;;;6.53;3.13;;;13.50;99.90;;;;;;5018121;28;20054;-81
2023/07/06 02:25:15;;;;;;;5.57;3.30;;;13.30;99.90;;;;;;5015201;28;20022;-81
2023/07/06 02:27:41;;;;;;;6.53;3.35;;;13.10;99.90;;;;;;5013645;28;20450;-81
2023/07/06 02:30:07;;;;;;;12.50;3.65;;;13.00;99.90;;;;;;5010674;28;20026;-80
2023/07/06 02:32:34;;;;;;;5.00;2.92;;;13.00;99.90;;;;;;5028231;28;20021;-81
2023/07/06 02:35:01;;;;;;;5.57;3.20;;;12.90;99.90;;;;;;5029104;28;20022;-79
2023/07/06 02:37:28;;;;;;;4.80;2.92;;;12.80;99.90;;;;;;5023195;28;20049;-80
2023/07/06 02:39:54;;;;;;;5.82;3.33;;;12.70;99.90;;;;;;5024422;28;20077;-81
2023/07/06 02:42:21;;;;;;;7.13;3.33;;;12.60;99.90;;;;;;5010160;28;20033;-81
2023/07/06 02:44:47;;;;;;;5.25;3.30;;;12.50;99.90;;;;;;5026759;28;20037;-81
2023/07/06 02:47:13;;;;;;;4.22;2.55;;;12.50;99.90;;;;;;5010725;28;20026;-80
2023/07/06 02:49:39;;;;;;;4.88;3.13;;;12.50;99.90;;;;;;5012595;28;20022;-79
2023/07/06 02:52:05;;;;;;;7.95;3.50;;;12.50;99.90;;;;;;5028635;28;20010;-81
2023/07/06 02:54:32;;;;;;;6.35;3.63;;;12.50;99.90;;;;;;5011882;28;20080;-81
2023/07/06 02:57:00;;;;;;;5.88;3.45;;;12.40;99.90;;;;;;5026098;28;20084;-81
2023/07/06 02:59:30;;;;;;;4.90;3.20;;;12.50;99.90;;;;;;5013006;28;20282;-80
2023/07/06 03:01:59;;;;;;;6.90;3.70;;;12.40;99.90;;;;;;5030254;28;20046;-81
2023/07/06 03:04:25;;;;;;;6.35;3.65;;;12.50;99.90;;;;;;5012040;28;20030;-81
2023/07/06 03:06:51;;;;;;;5.38;3.53;;;12.40;99.90;;;;;;5010289;28;20052;-81
2023/07/06 03:09:17;;;;;;;7.57;3.72;;;12.40;99.90;;;;;;5032746;28;20030;-81
2023/07/06 03:11:44;;;;;;;3.55;3.10;;;12.40;99.90;;;;;;5018898;28;20022;-81
2023/07/06 03:14:11;;;;;;;5.32;2.92;;;12.30;99.90;;;;;;5031791;28;20022;-80
2023/07/06 03:16:42;;;;;;;8.18;4.10;;;12.30;99.90;;;;;;5014802;28;20030;-81
2023/07/06 03:19:14;;;;;;;8.40;4.00;;;12.40;99.90;;;;;;5012282;28;20033;-81
2023/07/06 03:21:40;;;;;;;5.00;3.28;;;12.40;99.90;;;;;;5013449;28;20041;-80
2023/07/06 03:24:07;;;;;;;6.85;2.65;;;12.40;99.90;;;;;;5031204;28;20018;-81
2023/07/06 03:26:34;;;;;;;5.40;3.10;;;12.50;99.90;;;;;;5014123;28;20049;-81
2023/07/06 03:29:04;;;;;;;4.45;3.05;;;12.50;99.90;;;;;;5015824;28;20049;-80
2023/07/06 03:31:32;;;;;;;6.13;3.05;;;12.50;99.90;;;;;;5035966;28;20137;-80
2023/07/06 03:33:58;;;;;;;5.47;3.78;;;12.60;99.90;;;;;;5018488;28;20069;-81
2023/07/06 03:36:23;;;;;;;4.53;2.95;;;12.50;99.90;;;;;;5035722;28;20028;-81
2023/07/06 03:38:49;;;;;;;4.85;3.33;;;12.50;99.90;;;;;;5038905;28;20083;-80
2023/07/06 03:41:38;;;;;;;4.70;3.13;;;12.50;99.90;;;;;;5038239;28;20022;-81
2023/07/06 03:44:17;;;;;;;5.28;3.65;;;12.40;99.90;;;;;;5038963;28;20052;-82
2023/07/06 03:46:46;;;;;;;6.72;4.03;;;12.30;99.90;;;;;;5022456;28;20010;-81
2023/07/06 03:49:13;;;;;;;10.35;4.15;;;12.20;99.90;;;;;;5022024;28;20088;-80
2023/07/06 03:51:38;;;;;;;12.13;3.88;;;12.10;99.90;;;;;;5040976;28;20018;-80
2023/07/06 03:54:06;;;;;;;5.88;3.55;;;12.10;99.90;;;;;;5040309;28;20026;-80
2023/07/06 03:56:32;;;;;;;7.90;4.13;;;12.10;99.90;;;;;;5022523;28;20006;-78
2023/07/06 03:59:05;;;;;;;5.20;3.65;;;12.20;99.90;;;;;;5020900;28;20030;-78
2023/07/06 04:01:36;;;;;;;8.23;3.55;;;12.20;99.90;;;;;;5037528;28;20037;-80
2023/07/06 04:04:08;;;;;;;4.95;3.45;;;12.20;99.90;;;;;;5038709;28;20029;-80
2023/07/06 04:06:42;;;;;;;8.52;4.25;;;12.30;99.90;;;;;;5003331;28;20045;-79
2023/07/06 04:09:09;;;;;;;7.25;3.92;;;12.30;99.90;;;;;;5036996;28;20029;-79
2023/07/06 04:11:36;;;;;;;4.55;2.97;;;12.30;99.90;;;;;;5020830;28;20024;-79
2023/07/06 04:14:06;;;;;;;6.82;3.90;;;12.30;99.90;;;;;;5035631;28;20623;-80
2023/07/06 04:16:36;;;;;;;6.65;3.72;;;12.40;99.90;;;;;;5018630;28;20022;-78
2023/07/06 04:19:02;;;;;;;6.38;3.03;;;12.40;99.90;;;;;;5018474;28;20018;-78
2023/07/06 04:21:28;;;;;;;4.45;3.40;;;12.60;99.90;;;;;;5039843;28;20037;-79
2023/07/06 04:23:54;;;;;;;4.35;2.85;;;12.70;99.90;;;;;;5040376;28;20014;-81
2023/07/06 04:26:21;;;;;;;6.72;2.85;;;12.90;99.90;;;;;;5039409;28;20010;-81
2023/07/06 04:28:48;;;;;;;5.05;3.47;;;13.00;99.90;;;;;;5012819;28;20041;-81
2023/07/06 04:31:15;;;;;;;4.05;2.80;;;13.10;99.90;;;;;;5010097;28;20022;-82
2023/07/06 04:33:41;;;;;;;5.05;3.33;;;13.10;99.90;;;;;;5017675;28;20521;-81
2023/07/06 04:36:09;;;;;;;6.18;3.75;;;13.10;99.90;;;;;;5024245;28;20026;-81
2023/07/06 04:38:35;;;;;;;4.63;2.90;;;13.20;99.90;;;;;;5039800;28;20036;-80
2023/07/06 04:41:01;;;;;;;5.20;3.50;;;13.40;99.90;;;;;;5020558;28;20085;-79
2023/07/06 04:43:27;;;;;;;4.22;2.90;;;13.50;99.90;;;;;;5033110;28;20025;-80
2023/07/06 04:45:57;;;;;;;7.60;2.58;;;13.60;99.90;;;;;;5017383;28;20049;-81
2023/07/06 04:48:24;;;;;;;5.90;3.25;;;13.60;99.90;;;;;;5035502;28;20091;-81
2023/07/06 04:50:52;;;;;;;6.25;3.22;;;13.70;99.90;;;;;;5021345;28;20608;-82
2023/07/06 04:53:18;;;;;;;7.65;3.83;;;13.90;99.90;;;;;;4998537;28;20037;-82
2023/07/06 04:55:45;;;;;;;5.85;3.25;;;14.00;99.90;;;;;;5024619;28;20018;-82
2023/07/06 04:58:11;;;;;;;7.03;3.33;;;14.20;99.90;;;;;;5005135;28;20034;-81
2023/07/06 05:00:39;;;;;;;3.45;2.55;;;14.50;99.90;;;;;;5013674;28;20056;-81
2023/07/06 05:03:09;;;;;;;7.22;4.10;;;14.70;99.90;;;;;;5007689;28;20507;-82
2023/07/06 05:05:40;;;;;;;4.70;3.05;;;14.80;99.90;;;;;;4994509;28;20061;-81
2023/07/06 05:08:07;;;;;;;6.32;3.55;;;15.00;99.90;;;;;;4993493;28;20034;-81
2023/07/06 05:10:34;;;;;;;5.50;2.90;;;15.10;99.90;;;;;;4994032;28;20158;-83
2023/07/06 05:13:01;;;;;;;15.30;3.38;;;15.30;99.90;;;;;;4993150;28;20014;-81
2023/07/06 05:15:26;;;;;;;5.22;3.20;;;15.40;99.90;;;;;;4997479;28;20038;-80
2023/07/06 05:17:54;;;;;;;5.82;3.30;;;15.50;99.90;;;;;;4994446;28;20122;-81
2023/07/06 05:20:20;;;;;;;5.25;2.75;;;15.50;99.90;;;;;;4975319;28;20018;-81
2023/07/06 05:22:48;;;;;;;5.88;3.45;;;15.60;99.90;;;;;;4976257;28;20096;-81
2023/07/06 05:25:17;;;;;;;4.90;3.13;;;15.70;99.90;;;;;;4975356;28;20026;-80
2023/07/06 05:27:44;;;;;;;3.97;2.80;;;15.80;99.90;;;;;;4989528;28;20506;-80
2023/07/06 05:30:10;;;;;;;5.30;3.20;;;15.90;99.90;;;;;;4992154;28;20170;-80
2023/07/06 05:32:36;;;;;;;3.30;2.40;;;16.00;99.90;;;;;;4973896;28;20026;-80
2023/07/06 05:35:02;;;;;;;6.72;3.53;;;15.90;99.90;;;;;;4973709;28;20029;-80
2023/07/06 05:37:28;;;;;;;5.45;3.17;;;16.20;99.90;;;;;;4991374;28;20042;-80
2023/07/06 05:39:53;;;;;;;4.93;2.92;;;16.40;99.90;;;;;;4973631;28;20183;-81
2023/07/06 05:42:19;;;;;;;5.13;3.63;;;16.60;99.90;;;;;;4991989;28;20388;-80
2023/07/06 05:44:45;;;;;;;7.38;3.67;;;16.70;99.90;;;;;;4991295;28;20033;-81
2023/07/06 05:47:12;;;;;;;4.85;2.92;;;16.80;99.90;;;;;;4991243;28;20030;-80
2023/07/06 05:49:38;;;;;;;8.32;4.00;;;17.00;99.90;;;;;;4991057;28;20113;-80
2023/07/06 05:52:05;;;;;;;4.97;3.22;;;17.10;99.90;;;;;;4994202;28;20049;-79
2023/07/06 05:54:30;;;;;;;5.72;3.80;;;17.20;99.90;;;;;;4976912;28;20486;-81
2023/07/06 05:56:57;;;;;;;6.53;3.85;;;17.00;99.90;;;;;;4999944;28;20061;-80
2023/07/06 05:59:26;;;;;;;9.57;4.18;;;17.00;99.90;;;;;;4992792;28;20069;-81
2023/07/06 06:01:52;;;;;;;8.75;4.47;;;17.00;99.90;;;;;;4991296;28;20403;-80
2023/07/06 06:04:18;;;;;;;5.22;3.40;;;17.10;99.90;;;;;;4990370;28;20475;-80
2023/07/06 06:06:54;;;;;;;6.28;3.75;;;17.40;99.90;;;;;;4990353;28;20022;-79
2023/07/06 06:09:21;;;;;;;7.05;3.50;;;17.60;99.90;;;;;;4982549;28;20022;-80
2023/07/06 06:11:48;;;;;;;6.28;4.13;;;17.90;99.90;;;;;;5009912;28;20037;-80
2023/07/06 06:14:14;;;;;;;7.88;4.20;;;18.10;99.90;;;;;;4990907;28;20022;-80
2023/07/06 06:16:40;;;;;;;7.85;3.72;;;18.20;99.90;;;;;;4991479;28;20022;-79
2023/07/06 06:19:07;;;;;;;4.85;3.40;;;18.40;99.90;;;;;;5008769;28;20029;-79
2023/07/06 06:21:33;;;;;;;5.85;3.92;;;18.90;99.90;;;;;;4991701;28;20032;-81
2023/07/06 06:24:00;;;;;;;20.50;9.48;;;19.10;99.90;;;;;;5014867;28;20026;-81
2023/07/06 06:26:26;;;;;;;4.18;3.30;;;19.50;99.90;;;;;;4991751;28;20026;-80
2023/07/06 06:28:52;;;;;;;4.32;3.47;;;19.70;99.90;;;;;;4989376;28;20045;-81
2023/07/06 06:31:17;;;;;;;6.93;3.85;;;19.30;99.90;;;;;;4994271;28;20034;-78
2023/07/06 06:33:46;;;;;;;6.43;3.22;;;19.00;99.90;;;;;;5010059;28;20455;-85
2023/07/06 06:36:31;;;;;;;9.63;3.42;;;18.80;99.90;;;;;;4997405;28;20030;-81
2023/07/06 06:38:58;;;;;;;7.20;4.18;;;18.60;99.90;;;;;;5017846;28;20258;-83
2023/07/06 06:41:24;;;;;;;6.50;3.38;;;18.40;99.90;;;;;;4992072;28;20138;-83
2023/07/06 06:43:49;;;;;;;6.80;3.50;;;18.80;99.90;;;;;;5008126;28;20080;-82
2023/07/06 06:46:15;;;;;;;5.50;3.50;;;19.50;99.90;;;;;;4990099;28;20061;-81
2023/07/06 06:48:41;;;;;;;5.18;2.70;;;21.10;98.60;;;;;;4989840;28;20026;-81
2023/07/06 06:51:10;;;;;;;5.70;3.67;;;22.90;93.20;;;;;;5007456;28;20022;-81
2023/07/06 06:53:39;;;;;;;4.93;3.42;;;24.30;87.20;;;;;;4989794;28;20025;-81
2023/07/06 06:56:06;;;;;;;3.63;2.83;;;24.90;78.00;;;;;;4989747;28;20099;-82
2023/07/06 06:58:32;;;;;;;6.57;3.53;;;25.20;75.40;;;;;;4990583;28;20473;-82
2023/07/06 07:00:59;;;;;;;4.35;3.45;;;24.90;74.00;;;;;;5009918;28;20105;-82
2023/07/06 07:03:28;;;;;;;7.95;3.40;;;24.70;73.90;;;;;;5009457;28;20033;-80
2023/07/06 07:06:11;;;;;;;5.47;3.50;;;24.40;72.50;;;;;;4993137;28;20026;-81
2023/07/06 07:08:49;;;;;;;3.92;2.97;;;24.80;72.70;;;;;;4991951;28;20045;-81
2023/07/06 07:11:19;;;;;;;5.60;3.92;;;25.00;73.10;;;;;;5010038;28;20057;-82
2023/07/06 07:13:45;;;;;;;6.03;3.47;;;25.10;71.20;;;;;;5008493;28;20153;-82
2023/07/06 07:16:11;;;;;;;4.38;3.50;;;24.60;71.90;;;;;;4992177;28;20085;-81
2023/07/06 07:18:38;;;;;;;5.68;3.25;;;24.30;72.80;;;;;;5009803;28;20049;-83
2023/07/06 07:21:06;;;;;;;5.93;3.30;;;24.00;74.60;;;;;;4992283;28;20430;-81
2023/07/06 07:23:43;;;;;;;3.92;3.25;;;24.60;74.30;;;;;;5009943;28;20022;-80
2023/07/06 07:26:12;;;;;;;5.75;3.15;;;25.50;70.20;;;;;;4992564;28;20136;-81
2023/07/06 07:28:38;;;;;;;4.18;3.10;;;24.80;69.60;;;;;;4991680;28;20038;-80
2023/07/06 07:31:07;;;;;;;4.78;3.65;;;26.10;68.90;;;;;;4992352;28;20079;-80
2023/07/06 07:33:33;;;;;;;;;;;26.50;68.80;;;;;;4992713;28;20080;-86
2023/07/06 07:36:02;;;;;;;6.18;4.22;;;25.50;66.50;;;;;;5009198;28;19905;-80
2023/07/06 07:38:28;;;;;;;11.52;3.60;;;24.80;67.90;;;;;;5009942;28;20038;-85
2023/07/06 07:40:56;;;;;;;7.30;3.25;;;25.50;67.80;;;;;;5011693;28;20097;-81
2023/07/06 07:43:31;;;;;;;4.78;3.00;;;25.70;65.80;;;;;;4994744;28;20105;-82
2023/07/06 07:46:00;;;;;;;7.85;3.70;;;25.30;66.20;;;;;;4997515;28;20478;-84
2023/07/06 07:48:26;;;;;;;6.78;3.63;;;25.00;68.50;;;;;;5012339;28;20018;-81
2023/07/06 07:50:56;;;;;;;4.60;3.00;;;25.50;65.50;;;;;;4996081;28;20307;-80
2023/07/06 07:53:23;;;;;;;4.15;3.00;;;26.50;64.30;;;;;;5007844;28;20094;-80
2023/07/06 07:55:50;;;;;;;4.00;3.20;;;26.70;63.50;;;;;;5006907;28;20030;-80
2023/07/06 07:58:16;;;;;;;6.25;3.60;;;27.30;62.10;;;;;;5006404;28;20483;-76
2023/07/06 08:00:47;;;;;;;6.47;3.67;;;28.00;61.00;;;;;;4995896;28;20036;-77
2023/07/06 08:03:13;;;;;;;6.43;3.70;;;28.50;60.60;;;;;;5010389;28;20121;-79
2023/07/06 08:05:42;;;;;;;5.90;3.20;;;28.60;60.00;;;;;;5010855;28;20105;-80
2023/07/06 08:08:09;;;;;;;;;;;28.50;59.50;;;;;;5013501;28;20482;-83
2023/07/06 08:10:36;;;;;;;5.03;3.10;;;28.70;59.10;;;;;;5003552;28;20425;-80
2023/07/06 08:13:03;;;;;;;4.15;2.97;;;28.80;57.90;;;;;;5009772;28;20034;-80
2023/07/06 08:15:29;;;;;;;5.25;2.28;;;29.20;56.70;;;;;;5011986;28;20026;-80
2023/07/06 08:18:00;;;;;;;4.38;2.63;;;29.30;54.00;;;;;;5012811;28;20564;-80
2023/07/06 08:20:29;;;;;;;6.40;3.38;;;28.80;55.40;;;;;;5012065;28;20131;-80
2023/07/06 08:22:59;;;;;;;4.82;2.78;;;28.80;55.70;;;;;;5010389;28;20089;-80
2023/07/06 08:25:28;;;;;;;4.43;3.35;;;29.20;55.40;;;;;;5010350;28;20034;-80
2023/07/06 08:27:56;;;;;;;;;;;28.20;56.20;;;;;;5010949;28;20026;-79
2023/07/06 08:30:23;;;;;;;5.47;3.25;;;26.50;58.60;;;;;;5016043;28;19960;-80
2023/07/06 08:32:51;;;;;;;5.93;3.15;;;26.20;62.40;;;;;;5013274;28;20088;-79
2023/07/06 08:35:17;;;;;;;5.75;3.58;;;26.60;60.20;;;;;;5019506;28;20037;-79
2023/07/06 08:37:44;;;;;;;5.45;3.40;;;26.20;59.80;;;;;;5007815;28;20038;-81
2023/07/06 08:40:14;;;;;;;5.18;3.33;;;26.00;60.90;;;;;;5000728;28;20026;-79
2023/07/06 08:42:45;;;;;;;5.40;3.20;;;26.20;61.30;;;;;;5014172;28;20037;-80
2023/07/06 08:45:40;;;;;;;5.22;3.55;;;26.40;64.00;;;;;;4996417;28;20249;-80
2023/07/06 08:48:12;;;;;;;5.07;3.55;;;26.10;59.70;;;;;;5003466;28;20076;-79
2023/07/06 08:50:40;;;;;;;5.53;3.28;;;26.60;61.80;;;;;;5000470;28;20469;-78
2023/07/06 08:53:10;;;;;;;3.63;2.60;;;27.00;59.90;;;;;;5016564;28;20022;-80
2023/07/06 08:55:36;;;;;;;3.63;2.95;;;27.00;60.50;;;;;;4993729;28;20025;-80
2023/07/06 08:58:03;;;;;;;4.93;3.53;;;25.70;58.90;;;;;;5009945;28;20112;-79
2023/07/06 09:00:31;;;;;;;4.50;3.30;;;26.30;60.50;;;;;;5015077;28;20029;-80
2023/07/06 09:03:05;;;;;;;5.13;3.20;;;26.60;60.50;;;;;;5008840;28;20065;-79
2023/07/06 09:05:33;;;;;;;4.55;2.90;;;26.40;61.40;;;;;;4996387;28;20360;-79
2023/07/06 09:08:00;;;;;;;3.77;2.37;;;25.40;60.80;;;;;;5016688;28;20030;-80
2023/07/06 09:10:28;;;;;;;4.43;2.35;;;24.70;61.70;;;;;;5013749;28;20022;-79
2023/07/06 09:12:56;;;;;;;6.37;2.53;;;24.80;62.00;;;;;;5013924;28;20063;-80
2023/07/06 09:15:30;;;;;;;6.30;3.22;;;24.30;63.20;;;;;;5013987;28;20018;-79
2023/07/06 09:18:02;;;;;;;6.53;3.35;;;24.70;62.40;;;;;;5000586;28;20041;-79
2023/07/06 09:20:28;;;;;;;4.13;2.92;;;25.40;61.40;;;;;;5000185;28;20080;-79
2023/07/06 09:22:54;;;;;;;3.22;2.65;;;26.10;59.60;;;;;;5012793;28;20026;-80
2023/07/06 09:25:38;;;;;;;3.80;2.90;;;26.30;60.50;;;;;;5005473;28;20037;-79
2023/07/06 09:28:07;;;;;;;6.45;3.50;;;26.40;60.00;;;;;;5002172;28;20041;-79
2023/07/06 09:30:36;;;;;;;7.88;2.88;;;26.40;59.20;;;;;;5016592;28;20045;-79
2023/07/06 09:33:13;;;;;;;4.65;2.85;;;26.20;60.40;;;;;;5012180;28;20463;-81
2023/07/06 09:35:41;;;;;;;3.15;2.58;;;26.00;60.70;;;;;;5013015;28;20105;-79
2023/07/06 09:38:14;;;;;;;6.50;3.25;;;25.60;62.00;;;;;;4994273;28;20096;-79
2023/07/06 09:40:43;;;;;;;5.03;2.78;;;25.30;61.90;;;;;;4991864;28;20251;-79
2023/07/06 09:43:29;;;;;;;4.57;2.53;;;25.30;64.70;;;;;;5006548;28;20506;-79
2023/07/06 09:45:58;;;;;;;5.85;3.30;;;25.70;61.50;;;;;;4995166;28;20253;-80
2023/07/06 09:48:37;;;;;;;3.85;2.50;;;25.70;62.80;;;;;;5000792;28;20029;-79
2023/07/06 09:51:08;;;;;;;4.85;2.33;;;25.80;62.50;;;;;;5020181;28;20052;-80
2023/07/06 09:53:51;;;;;;;5.22;2.30;;;26.00;61.80;;;;;;4988412;28;20065;-80
2023/07/06 09:56:17;;;;;;;5.07;2.58;;;26.00;64.00;;;;;;4995110;28;20080;-80
2023/07/06 09:58:45;;;;;;;4.03;2.60;;;25.40;60.30;;;;;;4988453;28;20042;-80
2023/07/06 10:01:43;;;;;;;3.20;2.58;;;24.70;62.40;;;;;;5014947;28;20068;-80
2023/07/06 10:04:14;;;;;;;5.40;2.80;;;24.60;61.60;;;;;;5005692;28;20093;-78
2023/07/06 10:07:18;;;;;;;3.33;2.72;;;24.90;62.00;;;;;;4998796;28;20325;-79
2023/07/06 10:09:46;;;;;;;2.60;1.95;;;25.40;61.70;;;;;;4992429;28;20081;-80
2023/07/06 10:12:38;;;;;;;2.65;2.10;;;25.40;60.20;;;;;;4988412;28;20064;-78
2023/07/06 10:15:15;;;;;;;3.42;2.47;;;25.60;62.10;;;;;;4984659;28;20193;-79
2023/07/06 10:17:48;;;;;;;5.00;2.83;;;25.10;60.10;;;;;;4989434;28;20064;-80
2023/07/06 10:20:18;;;;;;;2.28;1.92;;;25.20;60.30;;;;;;4989286;28;20072;-79
2023/07/06 10:23:19;;;;;;;5.53;2.58;;;25.40;59.80;;;;;;4994633;28;20038;-79
2023/07/06 10:25:52;;;;;;;3.13;2.55;;;25.70;61.40;;;;;;4992432;28;20022;-78
2023/07/06 10:28:23;;;;;;;2.45;1.92;;;25.90;60.70;;;;;;5006440;28;20558;-79
2023/07/06 10:30:52;;;;;;;4.90;2.08;;;26.40;61.20;;;;;;5017465;28;20033;-79
2023/07/06 10:33:24;;;;;;;4.93;1.90;;;26.70;59.70;;;;;;5016013;28;20066;-80
2023/07/06 10:35:52;;;;;;;3.95;2.55;;;26.20;60.60;;;;;;5015915;28;20068;-79
2023/07/06 10:38:18;;;;;;;1.88;1.70;;;25.90;61.30;;;;;;5016521;28;20204;-80
2023/07/06 10:40:51;;;;;;;4.93;2.53;;;25.60;61.40;;;;;;4995223;28;20020;-79
2023/07/06 10:43:20;;;;;;;4.53;2.65;;;25.70;60.60;;;;;;4990643;28;20033;-79
2023/07/06 10:45:48;;;;;;;3.47;1.98;;;25.70;61.20;;;;;;5002204;28;20022;-82
2023/07/06 10:48:15;;;;;;;2.75;1.90;;;25.60;62.50;;;;;;5004014;28;20657;-80
2023/07/06 10:50:49;;;;;;;3.30;2.38;;;25.70;61.40;;;;;;5001948;28;20057;-80
2023/07/06 10:53:41;;;;;;;5.13;2.28;;;25.80;59.70;;;;;;5017900;28;20077;-80
2023/07/06 10:56:30;;;;;;;3.72;2.15;;;25.90;60.90;;;;;;4999766;28;20045;-79
2023/07/06 10:58:58;;;;;;;6.72;1.70;;;26.00;59.20;;;;;;5013996;28;20029;-80
2023/07/06 11:01:32;;;;;;;2.10;1.90;;;27.20;58.20;;;;;;5017252;28;20052;-78
2023/07/06 11:04:00;;;;;;;2.30;1.70;;;27.00;57.60;;;;;;5017625;28;20065;-79
2023/07/06 11:06:41;;;;;;;3.83;1.67;;;27.20;58.50;;;;;;5001937;28;20028;-79
2023/07/06 11:09:10;;;;;;;1.50;1.40;;;27.80;57.00;;;;;;5012061;28;20230;-79
2023/07/06 11:11:39;;;;;;;4.18;2.45;;;28.60;57.20;;;;;;4982482;28;20327;-79
2023/07/06 11:14:19;;;;;;;2.05;1.73;;;28.10;55.80;;;;;;5018272;28;20044;-79
2023/07/06 11:16:56;;;;;;;2.80;1.98;;;27.90;57.10;;;;;;5005429;28;20182;-81
2023/07/06 11:19:27;;;;;;;6.30;1.73;;;28.00;59.20;;;;;;5023379;28;20095;-79
2023/07/06 11:21:59;;;;;;;3.45;1.77;;;27.30;57.30;;;;;;5018902;28;20313;-83
2023/07/06 11:24:32;;;;;;;3.85;1.75;;;26.90;56.80;;;;;;4996450;28;20487;-80
2023/07/06 11:34:30;;;;;;;3.17;1.90;;;28.60;56.70;;;;;;4997527;28;20078;-79
2023/07/06 12:33:34;;;;;;;2.55;1.70;;;32.60;50.60;;;;;;4946041;29;20097;-79
2023/07/06 12:36:00;;;;;;;2.40;1.95;;;32.30;50.10;;;;;;4955792;29;20051;-85
2023/07/06 12:38:27;;;;;;;4.95;1.73;;;31.00;50.20;;;;;;4965816;28;20035;-78
2023/07/06 12:41:13;;;;;;;2.63;2.28;;;30.60;50.60;;;;;;4950613;29;20237;-81
2023/07/06 12:43:39;;;;;;;2.30;1.83;;;28.50;52.00;;;;;;4965742;29;20027;-79
2023/07/06 12:46:05;;;;;;;5.30;1.90;;;27.30;55.30;;;;;;4963473;29;20086;-80
2023/07/06 12:48:32;;;;;;;2.70;1.70;;;26.80;56.90;;;;;;4963761;29;20027;-78
2023/07/06 12:51:09;;;;;;;2.75;1.80;;;26.90;56.80;;;;;;4947760;29;20115;-79
2023/07/06 12:53:35;;;;;;;3.50;1.88;;;27.00;57.00;;;;;;4950149;29;20033;-80
2023/07/06 12:56:08;;;;;;;2.20;1.83;;;27.60;56.50;;;;;;4967226;29;20024;-80
2023/07/06 12:58:36;;;;;;;2.65;1.70;;;28.30;58.70;;;;;;4962593;29;20114;-80
2023/07/06 13:01:20;;;;;;;2.28;1.90;;;30.00;55.80;;;;;;4940059;29;20121;-79
2023/07/06 13:03:47;;;;;;;2.72;2.00;;;31.70;52.10;;;;;;4965839;29;20090;-80
2023/07/06 13:06:15;;;;;;;14.52;2.78;;;32.70;50.90;;;;;;4948375;29;20102;-79
2023/07/06 13:08:42;;;;;;;2.00;1.65;;;31.10;50.40;;;;;;4961942;28;20094;-80
2023/07/06 13:11:07;;;;;;;3.05;1.70;;;29.30;54.00;;;;;;4949568;29;20405;-81
2023/07/06 13:13:37;;;;;;;2.58;2.38;;;27.80;55.30;;;;;;4948849;29;20027;-82
2023/07/06 13:16:08;;;;;;;2.88;2.05;;;27.20;55.60;;;;;;4965462;28;20030;-81
2023/07/06 13:18:34;;;;;;;1.92;1.42;;;27.20;56.60;;;;;;4947957;29;20055;-80
2023/07/06 13:21:02;;;;;;;3.08;2.05;;;27.90;54.60;;;;;;4946013;29;20051;-80
2023/07/06 13:23:28;;;;;;;2.05;1.92;;;28.40;53.70;;;;;;4946870;29;20043;-79
2023/07/06 13:25:55;;;;;;;3.08;1.63;;;27.90;55.40;;;;;;4965434;29;20105;-78
2023/07/06 13:28:21;;;;;;;5.68;2.05;;;27.50;56.80;;;;;;4939555;29;20027;-79
2023/07/06 13:30:52;;;;;;;2.15;1.63;;;27.20;55.60;;;;;;4956766;28;20023;-81
2023/07/06 13:33:19;;;;;;;2.67;2.08;;;26.40;59.10;;;;;;4955456;28;20028;-81
2023/07/06 13:35:46;;;;;;;2.50;1.67;;;26.50;58.30;;;;;;4956541;29;20042;-80
2023/07/06 13:38:13;;;;;;;3.53;1.95;;;28.00;55.60;;;;;;4954003;28;20435;-79
2023/07/06 13:40:41;;;;;;;2.58;1.85;;;29.30;53.10;;;;;;4941884;29;20046;-79
2023/07/06 13:43:13;;;;;;;1.80;1.70;;;30.60;52.70;;;;;;4957438;29;20031;-79
2023/07/06 13:45:40;;;;;;;3.20;1.95;;;31.40;50.90;;;;;;4964069;29;20034;-78
2023/07/06 13:48:07;;;;;;;5.22;1.80;;;32.20;51.10;;;;;;4963942;29;20460;-80
2023/07/06 13:50:33;;;;;;;2.63;1.90;;;32.70;49.50;;;;;;4957138;29;20059;-80
2023/07/06 13:52:59;;;;;;;2.90;2.15;;;33.10;50.20;;;;;;4939115;29;20081;-80
2023/07/06 13:55:30;;;;;;;2.33;1.75;;;32.20;48.80;;;;;;4956846;29;20023;-79
2023/07/06 13:57:55;;;;;;;2.72;2.28;;;31.20;50.80;;;;;;4956535;29;20121;-81
2023/07/06 14:00:22;;;;;;;1.85;1.50;;;30.10;52.10;;;;;;4956414;29;20016;-79
2023/07/06 14:02:48;;;;;;;3.05;2.28;;;30.30;52.50;;;;;;4956607;29;20051;-78
2023/07/06 14:05:16;;;;;;;3.90;2.08;;;30.20;52.30;;;;;;4938872;29;20031;-78
2023/07/06 14:07:42;;;;;;;2.88;2.38;;;30.50;51.10;;;;;;4958934;29;20027;-77
2023/07/06 14:10:09;;;;;;;2.42;1.75;;;30.10;53.50;;;;;;4964529;29;20206;-78
2023/07/06 14:12:35;;;;;;;3.17;1.88;;;29.90;51.70;;;;;;4962429;29;20019;-79